sensor_id;sensor_type;location;lat;lon;timestamp;pressure;altitude;pressure_sealevel;temperature;humidity
16148;BME280;8179;59.364;18.018;2024-02-26T00:01:51;100613.44;;;1.91;100.00
16148;BME280;8179;59.364;18.018;2024-02-26T00:04:18;100617.09;;;1.97;100.00
16148;BME280;8179;59.364;18.018;2024-02-26T00:06:45;100626.41;;;1.94;100.00
16148;BME280;8179;59.364;18.018;2024-02-26T00:09:11;100614.19;;;1.98;100.00
16148;BME280;8179;59.364;18.018;2024-02-26T00:11:38;100622.63;;;2.02;100.00
16148;BME280;8179;59.364;18.018;2024-02-26T00:14:05;100620.31;;;2.05;100.00
16148;BME280;8179;59.364;18.018;2024-02-26T00:16:32;100626.03;;;2.09;100.00
16148;BME280;8179;59.364;18.018;2024-02-26T00:19:00;100626.13;;;2.02;100.00
16148;BME280;8179;59.364;18.018;2024-02-26T00:21:28;100617.44;;;1.82;100.00
16148;BME280;8179;59.364;18.018;2024-02-26T00:23:54;100631.47;;;1.84;100.00
16148;BME280;8179;59.364;18.018;2024-02-26T00:26:21;100629.47;;;1.73;100.00
16148;BME280;8179;59.364;18.018;2024-02-26T00:28:48;100625.97;;;1.72;100.00
16148;BME280;8179;59.364;18.018;2024-02-26T00:31:16;100625.53;;;1.75;100.00
16148;BME280;8179;59.364;18.018;2024-02-26T00:33:42;100624.34;;;1.71;100.00
16148;BME280;8179;59.364;18.018;2024-02-26T00:36:11;100623.19;;;1.85;100.00
16148;BME280;8179;59.364;18.018;2024-02-26T00:38:38;100618.81;;;1.91;100.00
16148;BME280;8179;59.364;18.018;2024-02-26T00:41:06;100624.94;;;1.98;100.00
16148;BME280;8179;59.364;18.018;2024-02-26T00:43:32;100624.16;;;1.91;100.00
16148;BME280;8179;59.364;18.018;2024-02-26T00:45:59;100628.59;;;1.79;100.00
16148;BME280;8179;59.364;18.018;2024-02-26T00:48:26;100616.47;;;1.76;100.00
16148;BME280;8179;59.364;18.018;2024-02-26T00:50:53;100634.09;;;1.90;100.00
16148;BME280;8179;59.364;18.018;2024-02-26T00:53:21;100633.16;;;1.97;100.00
16148;BME280;8179;59.364;18.018;2024-02-26T00:55:48;100640.56;;;2.01;100.00
16148;BME280;8179;59.364;18.018;2024-02-26T00:58:15;100636.41;;;2.05;100.00
16148;BME280;8179;59.364;18.018;2024-02-26T01:00:42;100637.00;;;2.07;100.00
16148;BME280;8179;59.364;18.018;2024-02-26T01:03:09;100624.88;;;2.05;100.00
16148;BME280;8179;59.364;18.018;2024-02-26T01:05:36;100642.66;;;2.17;100.00
16148;BME280;8179;59.364;18.018;2024-02-26T01:08:04;100636.06;;;2.20;100.00
16148;BME280;8179;59.364;18.018;2024-02-26T01:10:31;100642.41;;;2.26;100.00
16148;BME280;8179;59.364;18.018;2024-02-26T01:12:58;100647.97;;;2.24;100.00
16148;BME280;8179;59.364;18.018;2024-02-26T01:15:25;100652.28;;;2.25;100.00
16148;BME280;8179;59.364;18.018;2024-02-26T01:17:52;100648.78;;;2.25;100.00
16148;BME280;8179;59.364;18.018;2024-02-26T01:20:19;100657.88;;;2.24;100.00
16148;BME280;8179;59.364;18.018;2024-02-26T01:22:46;100648.41;;;2.21;100.00
16148;BME280;8179;59.364;18.018;2024-02-26T01:25:13;100641.13;;;2.28;100.00
16148;BME280;8179;59.364;18.018;2024-02-26T01:27:42;100638.06;;;2.25;100.00
16148;BME280;8179;59.364;18.018;2024-02-26T01:30:10;100637.16;;;2.31;100.00
16148;BME280;8179;59.364;18.018;2024-02-26T01:32:36;100639.03;;;2.30;100.00
16148;BME280;8179;59.364;18.018;2024-02-26T01:35:05;100642.59;;;2.24;100.00
16148;BME280;8179;59.364;18.018;2024-02-26T01:37:35;100646.09;;;2.25;100.00
16148;BME280;8179;59.364;18.018;2024-02-26T01:40:02;100634.84;;;2.16;100.00
16148;BME280;8179;59.364;18.018;2024-02-26T01:42:31;100630.59;;;2.08;100.00
16148;BME280;8179;59.364;18.018;2024-02-26T01:44:59;100625.09;;;2.22;100.00
16148;BME280;8179;59.364;18.018;2024-02-26T01:47:27;100615.94;;;2.29;100.00
16148;BME280;8179;59.364;18.018;2024-02-26T01:49:55;100617.63;;;2.60;100.00
16148;BME280;8179;59.364;18.018;2024-02-26T01:52:22;100607.50;;;2.44;100.00
16148;BME280;8179;59.364;18.018;2024-02-26T01:54:49;100605.22;;;2.47;100.00
16148;BME280;8179;59.364;18.018;2024-02-26T01:57:16;100595.88;;;2.50;100.00
16148;BME280;8179;59.364;18.018;2024-02-26T01:59:45;100585.38;;;2.48;100.00
16148;BME280;8179;59.364;18.018;2024-02-26T02:02:15;100594.09;;;2.44;100.00
16148;BME280;8179;59.364;18.018;2024-02-26T02:04:42;100600.41;;;2.68;100.00
16148;BME280;8179;59.364;18.018;2024-02-26T02:07:09;100607.91;;;2.78;100.00
16148;BME280;8179;59.364;18.018;2024-02-26T02:09:36;100602.78;;;2.76;100.00
16148;BME280;8179;59.364;18.018;2024-02-26T02:12:03;100592.16;;;2.81;100.00
16148;BME280;8179;59.364;18.018;2024-02-26T02:14:30;100596.72;;;2.81;100.00
16148;BME280;8179;59.364;18.018;2024-02-26T02:16:57;100599.63;;;2.79;100.00
16148;BME280;8179;59.364;18.018;2024-02-26T02:19:26;100593.13;;;2.87;100.00
16148;BME280;8179;59.364;18.018;2024-02-26T02:21:54;100587.59;;;2.82;100.00
16148;BME280;8179;59.364;18.018;2024-02-26T02:24:21;100589.03;;;2.84;100.00
16148;BME280;8179;59.364;18.018;2024-02-26T02:26:47;100578.78;;;2.63;100.00
16148;BME280;8179;59.364;18.018;2024-02-26T02:29:15;100576.44;;;2.66;100.00
16148;BME280;8179;59.364;18.018;2024-02-26T02:31:43;100572.09;;;2.84;100.00
16148;BME280;8179;59.364;18.018;2024-02-26T02:34:10;100576.00;;;2.99;100.00
16148;BME280;8179;59.364;18.018;2024-02-26T02:36:48;100576.16;;;3.16;100.00
16148;BME280;8179;59.364;18.018;2024-02-26T02:39:17;100580.50;;;3.17;100.00
16148;BME280;8179;59.364;18.018;2024-02-26T02:41:44;100590.63;;;3.15;100.00
16148;BME280;8179;59.364;18.018;2024-02-26T02:44:11;100581.28;;;3.06;100.00
16148;BME280;8179;59.364;18.018;2024-02-26T02:46:38;100576.47;;;3.08;100.00
16148;BME280;8179;59.364;18.018;2024-02-26T02:49:08;100586.38;;;2.96;100.00
16148;BME280;8179;59.364;18.018;2024-02-26T02:51:35;100595.75;;;3.05;100.00
16148;BME280;8179;59.364;18.018;2024-02-26T02:54:02;100579.03;;;3.03;100.00
16148;BME280;8179;59.364;18.018;2024-02-26T02:56:30;100589.19;;;2.89;100.00
16148;BME280;8179;59.364;18.018;2024-02-26T02:58:57;100585.56;;;2.95;100.00
16148;BME280;8179;59.364;18.018;2024-02-26T03:01:24;100582.88;;;2.95;100.00
16148;BME280;8179;59.364;18.018;2024-02-26T03:03:50;100578.69;;;2.99;100.00
16148;BME280;8179;59.364;18.018;2024-02-26T03:06:18;100588.63;;;2.99;100.00
16148;BME280;8179;59.364;18.018;2024-02-26T03:08:46;100595.16;;;3.03;100.00
16148;BME280;8179;59.364;18.018;2024-02-26T03:11:13;100593.31;;;3.03;100.00
16148;BME280;8179;59.364;18.018;2024-02-26T03:13:42;100584.63;;;3.01;100.00
16148;BME280;8179;59.364;18.018;2024-02-26T03:16:09;100591.88;;;3.01;100.00
16148;BME280;8179;59.364;18.018;2024-02-26T03:18:38;100595.16;;;3.03;100.00
16148;BME280;8179;59.364;18.018;2024-02-26T03:21:05;100602.19;;;3.04;100.00
16148;BME280;8179;59.364;18.018;2024-02-26T03:23:32;100597.25;;;3.01;100.00
16148;BME280;8179;59.364;18.018;2024-02-26T03:26:02;100574.31;;;2.87;100.00
16148;BME280;8179;59.364;18.018;2024-02-26T03:28:29;100596.44;;;3.00;100.00
16148;BME280;8179;59.364;18.018;2024-02-26T03:30:57;100603.09;;;2.98;100.00
16148;BME280;8179;59.364;18.018;2024-02-26T03:33:24;100594.81;;;2.99;100.00
16148;BME280;8179;59.364;18.018;2024-02-26T03:35:51;100601.81;;;3.00;100.00
16148;BME280;8179;59.364;18.018;2024-02-26T03:38:18;100600.19;;;2.99;100.00
16148;BME280;8179;59.364;18.018;2024-02-26T03:40:45;100592.59;;;2.96;100.00
16148;BME280;8179;59.364;18.018;2024-02-26T03:43:12;100588.03;;;2.97;100.00
16148;BME280;8179;59.364;18.018;2024-02-26T03:45:38;100594.25;;;2.79;100.00
16148;BME280;8179;59.364;18.018;2024-02-26T03:48:07;100594.72;;;2.76;100.00
16148;BME280;8179;59.364;18.018;2024-02-26T03:50:35;100609.47;;;2.85;100.00
16148;BME280;8179;59.364;18.018;2024-02-26T03:53:02;100608.56;;;2.91;100.00
16148;BME280;8179;59.364;18.018;2024-02-26T03:55:29;100604.97;;;2.97;100.00
16148;BME280;8179;59.364;18.018;2024-02-26T03:57:56;100609.44;;;3.03;100.00
16148;BME280;8179;59.364;18.018;2024-02-26T04:00:23;100600.53;;;3.03;100.00
16148;BME280;8179;59.364;18.018;2024-02-26T04:02:51;100599.63;;;3.09;100.00
16148;BME280;8179;59.364;18.018;2024-02-26T04:05:20;100597.66;;;3.16;100.00
16148;BME280;8179;59.364;18.018;2024-02-26T04:07:46;100590.75;;;3.09;100.00
16148;BME280;8179;59.364;18.018;2024-02-26T04:10:14;100587.59;;;3.12;100.00
16148;BME280;8179;59.364;18.018;2024-02-26T04:12:42;100586.88;;;3.05;100.00
16148;BME280;8179;59.364;18.018;2024-02-26T04:15:10;100599.84;;;3.08;100.00
16148;BME280;8179;59.364;18.018;2024-02-26T04:17:37;100592.16;;;3.11;100.00
16148;BME280;8179;59.364;18.018;2024-02-26T04:20:06;100599.34;;;2.99;100.00
16148;BME280;8179;59.364;18.018;2024-02-26T04:22:34;100603.00;;;3.05;100.00
16148;BME280;8179;59.364;18.018;2024-02-26T04:25:04;100610.34;;;3.09;100.00
16148;BME280;8179;59.364;18.018;2024-02-26T04:27:30;100606.66;;;3.10;100.00
16148;BME280;8179;59.364;18.018;2024-02-26T04:29:57;100608.72;;;3.08;100.00
16148;BME280;8179;59.364;18.018;2024-02-26T04:32:24;100605.91;;;3.03;100.00
16148;BME280;8179;59.364;18.018;2024-02-26T04:34:51;100604.41;;;3.07;100.00
16148;BME280;8179;59.364;18.018;2024-02-26T04:37:18;100597.97;;;2.96;100.00
16148;BME280;8179;59.364;18.018;2024-02-26T04:39:46;100599.94;;;3.01;100.00
16148;BME280;8179;59.364;18.018;2024-02-26T04:42:12;100599.34;;;2.99;100.00
16148;BME280;8179;59.364;18.018;2024-02-26T04:44:39;100594.44;;;2.96;100.00
16148;BME280;8179;59.364;18.018;2024-02-26T04:47:06;100584.81;;;2.88;100.00
16148;BME280;8179;59.364;18.018;2024-02-26T04:49:33;100603.28;;;2.85;100.00
16148;BME280;8179;59.364;18.018;2024-02-26T04:52:00;100597.75;;;2.80;100.00
16148;BME280;8179;59.364;18.018;2024-02-26T04:54:27;100601.72;;;2.77;100.00
16148;BME280;8179;59.364;18.018;2024-02-26T04:56:55;100597.94;;;2.66;100.00
16148;BME280;8179;59.364;18.018;2024-02-26T04:59:24;100599.34;;;2.69;100.00
16148;BME280;8179;59.364;18.018;2024-02-26T05:01:51;100605.63;;;2.63;100.00
16148;BME280;8179;59.364;18.018;2024-02-26T05:04:18;100597.66;;;2.56;100.00
16148;BME280;8179;59.364;18.018;2024-02-26T05:06:45;100618.66;;;2.59;100.00
16148;BME280;8179;59.364;18.018;2024-02-26T05:09:12;100601.91;;;2.64;100.00
16148;BME280;8179;59.364;18.018;2024-02-26T05:11:39;100605.25;;;2.59;100.00
16148;BME280;8179;59.364;18.018;2024-02-26T05:14:08;100616.06;;;2.53;100.00
16148;BME280;8179;59.364;18.018;2024-02-26T05:16:35;100621.16;;;2.61;100.00
16148;BME280;8179;59.364;18.018;2024-02-26T05:19:01;100622.31;;;2.65;100.00
16148;BME280;8179;59.364;18.018;2024-02-26T05:21:28;100614.66;;;2.68;100.00
16148;BME280;8179;59.364;18.018;2024-02-26T05:23:55;100625.38;;;2.68;100.00
16148;BME280;8179;59.364;18.018;2024-02-26T05:26:23;100627.03;;;2.69;100.00
16148;BME280;8179;59.364;18.018;2024-02-26T05:28:50;100626.88;;;2.64;100.00
16148;BME280;8179;59.364;18.018;2024-02-26T05:31:18;100640.97;;;2.60;100.00
16148;BME280;8179;59.364;18.018;2024-02-26T05:33:45;100639.47;;;2.64;100.00
16148;BME280;8179;59.364;18.018;2024-02-26T05:36:18;100647.69;;;2.69;100.00
16148;BME280;8179;59.364;18.018;2024-02-26T05:38:45;100647.22;;;2.72;100.00
16148;BME280;8179;59.364;18.018;2024-02-26T05:41:12;100649.47;;;2.75;100.00
16148;BME280;8179;59.364;18.018;2024-02-26T05:43:39;100490.81;;;1.61;100.00
16148;BME280;8179;59.364;18.018;2024-02-26T05:46:06;100641.94;;;2.65;100.00
16148;BME280;8179;59.364;18.018;2024-02-26T05:48:35;100642.63;;;2.61;100.00
16148;BME280;8179;59.364;18.018;2024-02-26T05:51:04;100644.66;;;2.47;100.00
16148;BME280;8179;59.364;18.018;2024-02-26T05:53:31;100644.25;;;2.43;100.00
16148;BME280;8179;59.364;18.018;2024-02-26T05:55:58;100637.56;;;2.34;100.00
16148;BME280;8179;59.364;18.018;2024-02-26T05:58:26;100639.13;;;2.42;100.00
16148;BME280;8179;59.364;18.018;2024-02-26T06:00:53;100637.69;;;2.39;100.00
16148;BME280;8179;59.364;18.018;2024-02-26T06:03:20;100635.69;;;2.35;100.00
16148;BME280;8179;59.364;18.018;2024-02-26T06:05:48;100639.03;;;2.30;100.00
16148;BME280;8179;59.364;18.018;2024-02-26T06:08:15;100642.00;;;2.22;100.00
16148;BME280;8179;59.364;18.018;2024-02-26T06:10:42;100642.91;;;2.16;100.00
16148;BME280;8179;59.364;18.018;2024-02-26T06:13:09;100640.50;;;2.08;100.00
16148;BME280;8179;59.364;18.018;2024-02-26T06:15:36;100646.03;;;2.13;100.00
16148;BME280;8179;59.364;18.018;2024-02-26T06:18:03;100650.16;;;2.34;100.00
16148;BME280;8179;59.364;18.018;2024-02-26T06:20:30;100653.59;;;2.41;100.00
16148;BME280;8179;59.364;18.018;2024-02-26T06:22:58;100654.63;;;2.40;100.00
16148;BME280;8179;59.364;18.018;2024-02-26T06:25:25;100656.75;;;2.31;100.00
16148;BME280;8179;59.364;18.018;2024-02-26T06:27:52;100654.75;;;2.45;100.00
16148;BME280;8179;59.364;18.018;2024-02-26T06:30:20;100659.59;;;2.36;100.00
16148;BME280;8179;59.364;18.018;2024-02-26T06:32:48;100665.38;;;2.40;100.00
16148;BME280;8179;59.364;18.018;2024-02-26T06:35:15;100664.38;;;2.34;100.00
16148;BME280;8179;59.364;18.018;2024-02-26T06:37:41;100653.50;;;2.47;100.00
16148;BME280;8179;59.364;18.018;2024-02-26T06:40:10;100653.59;;;2.41;100.00
16148;BME280;8179;59.364;18.018;2024-02-26T06:42:37;100653.22;;;2.56;100.00
16148;BME280;8179;59.364;18.018;2024-02-26T06:45:05;100658.63;;;2.67;100.00
16148;BME280;8179;59.364;18.018;2024-02-26T06:47:32;100659.28;;;2.81;100.00
16148;BME280;8179;59.364;18.018;2024-02-26T06:49:59;100663.03;;;2.80;100.00
16148;BME280;8179;59.364;18.018;2024-02-26T06:52:26;100631.28;;;2.59;100.00
16148;BME280;8179;59.364;18.018;2024-02-26T06:54:53;100656.56;;;2.51;100.00
16148;BME280;8179;59.364;18.018;2024-02-26T06:57:24;100663.09;;;2.37;100.00
16148;BME280;8179;59.364;18.018;2024-02-26T06:59:51;100664.03;;;2.49;100.00
16148;BME280;8179;59.364;18.018;2024-02-26T07:02:18;100666.63;;;2.37;100.00
16148;BME280;8179;59.364;18.018;2024-02-26T07:04:45;100663.09;;;2.37;100.00
16148;BME280;8179;59.364;18.018;2024-02-26T07:07:11;100675.50;;;2.56;100.00
16148;BME280;8179;59.364;18.018;2024-02-26T07:09:41;100667.81;;;2.41;100.00
16148;BME280;8179;59.364;18.018;2024-02-26T07:12:08;100680.72;;;2.51;100.00
16148;BME280;8179;59.364;18.018;2024-02-26T07:14:37;100675.19;;;2.64;100.00
16148;BME280;8179;59.364;18.018;2024-02-26T07:17:04;100674.06;;;2.72;100.00
16148;BME280;8179;59.364;18.018;2024-02-26T07:19:31;100648.81;;;2.43;100.00
16148;BME280;8179;59.364;18.018;2024-02-26T07:21:58;100683.03;;;2.66;100.00
16148;BME280;8179;59.364;18.018;2024-02-26T07:24:26;100686.91;;;2.70;100.00
16148;BME280;8179;59.364;18.018;2024-02-26T07:26:53;100681.38;;;2.83;100.00
16148;BME280;8179;59.364;18.018;2024-02-26T07:29:24;100650.88;;;2.59;100.00
16148;BME280;8179;59.364;18.018;2024-02-26T07:31:52;100693.84;;;2.78;100.00
16148;BME280;8179;59.364;18.018;2024-02-26T07:34:19;100682.72;;;2.74;100.00
16148;BME280;8179;59.364;18.018;2024-02-26T07:36:46;100692.63;;;2.73;100.00
16148;BME280;8179;59.364;18.018;2024-02-26T07:39:12;100706.22;;;2.79;100.00
16148;BME280;8179;59.364;18.018;2024-02-26T07:41:39;100694.06;;;2.76;100.00
16148;BME280;8179;59.364;18.018;2024-02-26T07:44:06;100716.06;;;2.85;100.00
16148;BME280;8179;59.364;18.018;2024-02-26T07:46:33;100702.56;;;2.73;100.00
16148;BME280;8179;59.364;18.018;2024-02-26T07:49:02;100712.25;;;2.56;100.00
16148;BME280;8179;59.364;18.018;2024-02-26T07:51:31;100703.94;;;2.39;100.00
16148;BME280;8179;59.364;18.018;2024-02-26T07:53:58;100715.75;;;2.74;100.00
16148;BME280;8179;59.364;18.018;2024-02-26T07:56:27;100724.44;;;2.77;100.00
16148;BME280;8179;59.364;18.018;2024-02-26T07:58:54;100695.28;;;2.62;100.00
16148;BME280;8179;59.364;18.018;2024-02-26T08:01:21;100721.00;;;2.69;100.00
16148;BME280;8179;59.364;18.018;2024-02-26T08:03:48;100720.63;;;2.84;100.00
16148;BME280;8179;59.364;18.018;2024-02-26T08:06:19;100722.59;;;2.89;100.00
16148;BME280;8179;59.364;18.018;2024-02-26T08:08:48;100727.69;;;2.79;100.00
16148;BME280;8179;59.364;18.018;2024-02-26T08:11:15;100734.03;;;3.02;100.00
16148;BME280;8179;59.364;18.018;2024-02-26T08:13:42;100726.63;;;3.16;100.00
16148;BME280;8179;59.364;18.018;2024-02-26T08:16:09;100736.94;;;3.01;100.00
16148;BME280;8179;59.364;18.018;2024-02-26T08:18:36;100745.22;;;2.99;100.00
16148;BME280;8179;59.364;18.018;2024-02-26T08:21:03;100744.16;;;3.19;100.00
16148;BME280;8179;59.364;18.018;2024-02-26T08:23:31;100744.13;;;3.37;100.00
16148;BME280;8179;59.364;18.018;2024-02-26T08:25:58;100754.56;;;3.45;100.00
16148;BME280;8179;59.364;18.018;2024-02-26T08:28:26;100752.25;;;3.49;100.00
16148;BME280;8179;59.364;18.018;2024-02-26T08:30:53;100727.78;;;3.39;100.00
16148;BME280;8179;59.364;18.018;2024-02-26T08:33:20;100771.47;;;3.64;100.00
16148;BME280;8179;59.364;18.018;2024-02-26T08:35:47;100770.88;;;3.62;100.00
16148;BME280;8179;59.364;18.018;2024-02-26T08:38:14;100773.00;;;3.60;100.00
16148;BME280;8179;59.364;18.018;2024-02-26T08:40:42;100769.81;;;3.63;100.00
16148;BME280;8179;59.364;18.018;2024-02-26T08:43:09;100768.44;;;3.61;100.00
16148;BME280;8179;59.364;18.018;2024-02-26T08:45:35;100761.63;;;3.58;100.00
16148;BME280;8179;59.364;18.018;2024-02-26T08:48:03;100776.25;;;3.62;100.00
16148;BME280;8179;59.364;18.018;2024-02-26T08:50:31;100762.63;;;3.75;100.00
16148;BME280;8179;59.364;18.018;2024-02-26T08:52:58;100765.75;;;3.72;100.00
16148;BME280;8179;59.364;18.018;2024-02-26T08:55:26;100763.53;;;3.69;100.00
16148;BME280;8179;59.364;18.018;2024-02-26T08:57:56;100772.19;;;3.41;100.00
16148;BME280;8179;59.364;18.018;2024-02-26T09:00:23;100761.44;;;3.41;100.00
16148;BME280;8179;59.364;18.018;2024-02-26T09:02:50;100774.06;;;3.41;100.00
16148;BME280;8179;59.364;18.018;2024-02-26T09:05:16;100755.03;;;3.42;100.00
16148;BME280;8179;59.364;18.018;2024-02-26T09:07:43;100770.56;;;3.70;100.00
16148;BME280;8179;59.364;18.018;2024-02-26T09:10:12;100768.25;;;3.74;100.00
16148;BME280;8179;59.364;18.018;2024-02-26T09:12:38;100772.47;;;3.81;100.00
16148;BME280;8179;59.364;18.018;2024-02-26T09:15:07;100776.09;;;3.87;100.00
16148;BME280;8179;59.364;18.018;2024-02-26T09:17:34;100780.66;;;3.86;100.00
16148;BME280;8179;59.364;18.018;2024-02-26T09:20:02;100785.34;;;3.91;100.00
16148;BME280;8179;59.364;18.018;2024-02-26T09:22:29;100778.06;;;3.80;100.00
16148;BME280;8179;59.364;18.018;2024-02-26T09:24:56;100783.59;;;3.85;100.00
16148;BME280;8179;59.364;18.018;2024-02-26T09:27:22;100789.91;;;3.91;100.00
16148;BME280;8179;59.364;18.018;2024-02-26T09:29:50;100784.47;;;4.09;100.00
16148;BME280;8179;59.364;18.018;2024-02-26T09:32:18;100790.34;;;4.18;100.00
16148;BME280;8179;59.364;18.018;2024-02-26T09:34:45;100782.81;;;3.96;100.00
16148;BME280;8179;59.364;18.018;2024-02-26T09:37:12;100782.09;;;4.01;100.00
16148;BME280;8179;59.364;18.018;2024-02-26T09:39:39;100778.47;;;3.95;100.00
16148;BME280;8179;59.364;18.018;2024-02-26T09:42:06;100790.06;;;3.96;100.00
16148;BME280;8179;59.364;18.018;2024-02-26T09:44:36;100775.50;;;3.85;100.00
16148;BME280;8179;59.364;18.018;2024-02-26T09:47:09;100786.38;;;3.78;100.00
16148;BME280;8179;59.364;18.018;2024-02-26T09:49:38;100783.53;;;4.03;100.00
16148;BME280;8179;59.364;18.018;2024-02-26T09:52:06;100796.38;;;4.01;100.00
16148;BME280;8179;59.364;18.018;2024-02-26T09:54:35;100794.56;;;3.83;100.00
16148;BME280;8179;59.364;18.018;2024-02-26T09:57:03;100782.00;;;4.07;100.00
16148;BME280;8179;59.364;18.018;2024-02-26T09:59:38;100792.56;;;4.32;100.00
16148;BME280;8179;59.364;18.018;2024-02-26T10:02:09;100797.47;;;4.35;100.00
16148;BME280;8179;59.364;18.018;2024-02-26T10:04:40;100792.09;;;4.35;100.00
16148;BME280;8179;59.364;18.018;2024-02-26T10:07:10;100793.56;;;3.96;100.00
16148;BME280;8179;59.364;18.018;2024-02-26T10:09:37;100782.72;;;3.73;100.00
16148;BME280;8179;59.364;18.018;2024-02-26T10:12:09;100784.44;;;3.97;100.00
16148;BME280;8179;59.364;18.018;2024-02-26T10:14:37;100796.75;;;4.05;100.00
16148;BME280;8179;59.364;18.018;2024-02-26T10:17:07;100789.72;;;4.04;100.00
16148;BME280;8179;59.364;18.018;2024-02-26T10:19:34;100801.00;;;4.24;100.00
16148;BME280;8179;59.364;18.018;2024-02-26T10:22:03;100795.41;;;4.37;100.00
16148;BME280;8179;59.364;18.018;2024-02-26T10:24:30;100770.47;;;4.30;100.00
16148;BME280;8179;59.364;18.018;2024-02-26T10:26:57;100778.53;;;4.54;100.00
16148;BME280;8179;59.364;18.018;2024-02-26T10:29:25;100795.75;;;4.64;100.00
16148;BME280;8179;59.364;18.018;2024-02-26T10:31:53;100782.16;;;4.71;100.00
16148;BME280;8179;59.364;18.018;2024-02-26T10:34:20;100766.00;;;4.48;100.00
16148;BME280;8179;59.364;18.018;2024-02-26T10:36:48;100793.19;;;4.46;100.00
16148;BME280;8179;59.364;18.018;2024-02-26T10:39:17;100790.63;;;4.51;100.00
16148;BME280;8179;59.364;18.018;2024-02-26T10:41:44;100790.59;;;4.39;100.00
16148;BME280;8179;59.364;18.018;2024-02-26T10:44:12;100793.50;;;4.26;100.00
16148;BME280;8179;59.364;18.018;2024-02-26T10:46:40;100802.97;;;4.17;100.00
16148;BME280;8179;59.364;18.018;2024-02-26T10:49:13;100800.94;;;4.01;100.00
16148;BME280;8179;59.364;18.018;2024-02-26T10:51:44;100796.25;;;3.96;100.00
16148;BME280;8179;59.364;18.018;2024-02-26T10:54:15;100799.91;;;4.02;100.00
16148;BME280;8179;59.364;18.018;2024-02-26T10:56:46;100793.28;;;4.16;100.00
16148;BME280;8179;59.364;18.018;2024-02-26T10:59:16;100789.16;;;4.13;100.00
16148;BME280;8179;59.364;18.018;2024-02-26T11:01:47;100792.41;;;4.16;100.00
16148;BME280;8179;59.364;18.018;2024-02-26T11:04:15;100796.19;;;4.26;100.00
16148;BME280;8179;59.364;18.018;2024-02-26T11:06:43;100797.38;;;4.30;100.00
16148;BME280;8179;59.364;18.018;2024-02-26T11:09:12;100798.88;;;4.26;100.00
16148;BME280;8179;59.364;18.018;2024-02-26T11:11:45;100797.03;;;4.38;100.00
16148;BME280;8179;59.364;18.018;2024-02-26T11:14:12;100799.16;;;4.60;100.00
16148;BME280;8179;59.364;18.018;2024-02-26T11:16:39;100780.75;;;4.57;100.00
16148;BME280;8179;59.364;18.018;2024-02-26T11:19:09;100799.25;;;4.88;100.00
16148;BME280;8179;59.364;18.018;2024-02-26T11:21:39;100757.94;;;4.48;100.00
16148;BME280;8179;59.364;18.018;2024-02-26T11:24:08;100795.75;;;4.76;100.00
16148;BME280;8179;59.364;18.018;2024-02-26T11:26:39;100792.81;;;4.78;100.00
16148;BME280;8179;59.364;18.018;2024-02-26T11:29:14;100804.88;;;4.75;100.00
16148;BME280;8179;59.364;18.018;2024-02-26T11:31:42;100726.31;;;4.20;100.00
16148;BME280;8179;59.364;18.018;2024-02-26T11:34:10;100802.06;;;4.93;100.00
16148;BME280;8179;59.364;18.018;2024-02-26T11:36:38;100809.56;;;5.03;100.00
16148;BME280;8179;59.364;18.018;2024-02-26T11:39:06;100807.19;;;5.07;100.00
16148;BME280;8179;59.364;18.018;2024-02-26T11:41:33;100803.31;;;5.14;100.00
16148;BME280;8179;59.364;18.018;2024-02-26T11:44:01;100797.91;;;5.26;100.00
16148;BME280;8179;59.364;18.018;2024-02-26T11:46:32;100766.94;;;4.88;100.00
16148;BME280;8179;59.364;18.018;2024-02-26T11:49:02;100796.28;;;5.13;100.00
16148;BME280;8179;59.364;18.018;2024-02-26T11:51:33;100795.00;;;5.16;100.00
16148;BME280;8179;59.364;18.018;2024-02-26T11:54:00;100774.16;;;5.11;100.00
16148;BME280;8179;59.364;18.018;2024-02-26T11:56:27;100792.59;;;5.43;100.00
16148;BME280;8179;59.364;18.018;2024-02-26T11:58:59;100788.88;;;5.20;100.00
16148;BME280;8179;59.364;18.018;2024-02-26T12:01:52;100797.13;;;5.42;100.00
16148;BME280;8179;59.364;18.018;2024-02-26T12:04:21;100802.25;;;5.56;100.00
16148;BME280;8179;59.364;18.018;2024-02-26T12:06:52;100790.75;;;5.60;100.00
16148;BME280;8179;59.364;18.018;2024-02-26T12:09:37;100795.16;;;5.78;100.00
16148;BME280;8179;59.364;18.018;2024-02-26T12:12:05;100792.53;;;5.83;100.00
16148;BME280;8179;59.364;18.018;2024-02-26T12:14:34;100788.66;;;5.91;100.00
16148;BME280;8179;59.364;18.018;2024-02-26T12:17:03;100792.59;;;6.00;100.00
16148;BME280;8179;59.364;18.018;2024-02-26T12:19:32;100796.28;;;6.11;100.00
16148;BME280;8179;59.364;18.018;2024-02-26T12:22:00;100796.94;;;6.01;100.00
16148;BME280;8179;59.364;18.018;2024-02-26T12:24:27;100796.03;;;5.95;100.00
16148;BME280;8179;59.364;18.018;2024-02-26T12:26:54;100807.19;;;5.87;100.00
16148;BME280;8179;59.364;18.018;2024-02-26T12:29:21;100806.63;;;5.85;100.00
16148;BME280;8179;59.364;18.018;2024-02-26T12:31:48;100811.50;;;5.88;100.00
16148;BME280;8179;59.364;18.018;2024-02-26T12:34:16;100808.25;;;5.86;100.00
16148;BME280;8179;59.364;18.018;2024-02-26T12:36:44;100810.50;;;5.77;100.00
16148;BME280;8179;59.364;18.018;2024-02-26T12:39:11;100810.28;;;5.79;100.00
16148;BME280;8179;59.364;18.018;2024-02-26T12:41:40;100831.81;;;5.91;100.00
16148;BME280;8179;59.364;18.018;2024-02-26T12:44:11;100816.78;;;5.95;100.00
16148;BME280;8179;59.364;18.018;2024-02-26T12:46:39;100813.44;;;5.76;100.00
16148;BME280;8179;59.364;18.018;2024-02-26T12:49:06;100825.00;;;5.60;100.00
16148;BME280;8179;59.364;18.018;2024-02-26T12:51:34;100833.44;;;5.63;100.00
16148;BME280;8179;59.364;18.018;2024-02-26T12:54:01;100826.75;;;5.66;100.00